sensor_id;sensor_type;location;lat;lon;timestamp;temperature;humidity
33881;DHT22;20172;47.530;10.256;2022-09-02T00:02:21;12.50;99.90
33881;DHT22;20172;47.530;10.256;2022-09-02T00:04:47;12.70;99.90
33881;DHT22;20172;47.530;10.256;2022-09-02T00:07:12;12.80;99.90
33881;DHT22;20172;47.530;10.256;2022-09-02T00:09:38;12.90;99.90
33881;DHT22;20172;47.530;10.256;2022-09-02T00:12:04;13.00;99.90
33881;DHT22;20172;47.530;10.256;2022-09-02T00:14:35;13.10;99.90
33881;DHT22;20172;47.530;10.256;2022-09-02T00:17:01;13.10;99.90
33881;DHT22;20172;47.530;10.256;2022-09-02T00:19:27;13.00;99.90
33881;DHT22;20172;47.530;10.256;2022-09-02T00:21:54;13.00;99.90
33881;DHT22;20172;47.530;10.256;2022-09-02T00:24:20;13.00;99.90
33881;DHT22;20172;47.530;10.256;2022-09-02T00:26:46;13.10;99.90
33881;DHT22;20172;47.530;10.256;2022-09-02T00:29:12;13.10;99.90
33881;DHT22;20172;47.530;10.256;2022-09-02T00:31:39;13.10;99.90
33881;DHT22;20172;47.530;10.256;2022-09-02T00:34:04;13.00;99.90
33881;DHT22;20172;47.530;10.256;2022-09-02T00:36:30;12.60;99.90
33881;DHT22;20172;47.530;10.256;2022-09-02T00:38:56;12.50;99.90
33881;DHT22;20172;47.530;10.256;2022-09-02T00:41:23;12.30;99.90
33881;DHT22;20172;47.530;10.256;2022-09-02T00:43:50;12.20;99.90
33881;DHT22;20172;47.530;10.256;2022-09-02T00:46:17;12.10;99.90
33881;DHT22;20172;47.530;10.256;2022-09-02T00:49:17;12.30;99.90
33881;DHT22;20172;47.530;10.256;2022-09-02T00:54:30;12.40;99.90
33881;DHT22;20172;47.530;10.256;2022-09-02T00:56:56;12.30;99.90
33881;DHT22;20172;47.530;10.256;2022-09-02T00:59:25;12.20;99.90
33881;DHT22;20172;47.530;10.256;2022-09-02T01:01:51;12.30;99.90
33881;DHT22;20172;47.530;10.256;2022-09-02T01:04:17;12.20;99.90
33881;DHT22;20172;47.530;10.256;2022-09-02T01:06:43;12.00;99.90
33881;DHT22;20172;47.530;10.256;2022-09-02T01:09:10;11.90;99.90
33881;DHT22;20172;47.530;10.256;2022-09-02T01:11:38;11.80;99.90
33881;DHT22;20172;47.530;10.256;2022-09-02T01:14:04;11.90;99.90
33881;DHT22;20172;47.530;10.256;2022-09-02T01:16:36;12.00;99.90
33881;DHT22;20172;47.530;10.256;2022-09-02T01:19:05;12.10;99.90
33881;DHT22;20172;47.530;10.256;2022-09-02T01:21:31;12.30;99.90
33881;DHT22;20172;47.530;10.256;2022-09-02T01:23:57;12.30;99.90
33881;DHT22;20172;47.530;10.256;2022-09-02T01:26:23;12.20;99.90
33881;DHT22;20172;47.530;10.256;2022-09-02T01:28:49;12.30;99.90
33881;DHT22;20172;47.530;10.256;2022-09-02T01:31:14;12.10;99.90
33881;DHT22;20172;47.530;10.256;2022-09-02T01:33:40;12.10;99.90
33881;DHT22;20172;47.530;10.256;2022-09-02T01:36:06;12.10;99.90
33881;DHT22;20172;47.530;10.256;2022-09-02T01:38:32;12.20;99.90
33881;DHT22;20172;47.530;10.256;2022-09-02T01:40:58;12.20;99.90
33881;DHT22;20172;47.530;10.256;2022-09-02T01:43:24;12.10;99.90
33881;DHT22;20172;47.530;10.256;2022-09-02T01:45:51;12.00;99.90
33881;DHT22;20172;47.530;10.256;2022-09-02T01:48:17;12.10;99.90
33881;DHT22;20172;47.530;10.256;2022-09-02T01:50:44;11.90;99.90
33881;DHT22;20172;47.530;10.256;2022-09-02T01:53:10;12.00;99.90
33881;DHT22;20172;47.530;10.256;2022-09-02T01:55:36;12.00;99.90
33881;DHT22;20172;47.530;10.256;2022-09-02T01:58:01;11.90;99.90
33881;DHT22;20172;47.530;10.256;2022-09-02T02:00:27;11.80;99.90
33881;DHT22;20172;47.530;10.256;2022-09-02T02:02:53;11.80;99.90
33881;DHT22;20172;47.530;10.256;2022-09-02T02:05:18;11.70;99.90
33881;DHT22;20172;47.530;10.256;2022-09-02T02:07:44;11.90;99.90
33881;DHT22;20172;47.530;10.256;2022-09-02T02:10:10;11.90;99.90
33881;DHT22;20172;47.530;10.256;2022-09-02T02:12:36;11.90;99.90
33881;DHT22;20172;47.530;10.256;2022-09-02T02:15:03;11.80;99.90
33881;DHT22;20172;47.530;10.256;2022-09-02T02:17:29;11.90;99.90
33881;DHT22;20172;47.530;10.256;2022-09-02T02:19:55;11.90;99.90
33881;DHT22;20172;47.530;10.256;2022-09-02T02:22:20;12.00;99.90
33881;DHT22;20172;47.530;10.256;2022-09-02T02:24:46;11.80;99.90
33881;DHT22;20172;47.530;10.256;2022-09-02T02:27:11;11.60;99.90
33881;DHT22;20172;47.530;10.256;2022-09-02T02:29:37;11.40;99.90
33881;DHT22;20172;47.530;10.256;2022-09-02T02:32:03;11.30;99.90
33881;DHT22;20172;47.530;10.256;2022-09-02T02:34:28;11.10;99.90
33881;DHT22;20172;47.530;10.256;2022-09-02T02:36:54;11.10;99.90
33881;DHT22;20172;47.530;10.256;2022-09-02T02:39:19;11.20;99.90
33881;DHT22;20172;47.530;10.256;2022-09-02T02:41:45;11.50;99.90
33881;DHT22;20172;47.530;10.256;2022-09-02T02:44:11;11.60;99.90
33881;DHT22;20172;47.530;10.256;2022-09-02T02:46:37;11.60;99.90
33881;DHT22;20172;47.530;10.256;2022-09-02T02:49:03;11.50;99.90
33881;DHT22;20172;47.530;10.256;2022-09-02T02:51:30;11.40;99.90
33881;DHT22;20172;47.530;10.256;2022-09-02T02:53:56;11.20;99.90
33881;DHT22;20172;47.530;10.256;2022-09-02T02:56:21;11.00;99.90
33881;DHT22;20172;47.530;10.256;2022-09-02T02:58:47;10.80;99.90
33881;DHT22;20172;47.530;10.256;2022-09-02T03:01:12;10.80;99.90
33881;DHT22;20172;47.530;10.256;2022-09-02T03:03:38;11.00;99.90
33881;DHT22;20172;47.530;10.256;2022-09-02T03:06:04;11.10;99.90
33881;DHT22;20172;47.530;10.256;2022-09-02T03:08:29;11.20;99.90
33881;DHT22;20172;47.530;10.256;2022-09-02T03:10:56;11.40;99.90
33881;DHT22;20172;47.530;10.256;2022-09-02T03:13:22;11.50;99.90
33881;DHT22;20172;47.530;10.256;2022-09-02T03:15:48;11.40;99.90
33881;DHT22;20172;47.530;10.256;2022-09-02T03:18:14;11.30;99.90
33881;DHT22;20172;47.530;10.256;2022-09-02T03:20:40;11.10;99.90
33881;DHT22;20172;47.530;10.256;2022-09-02T03:23:05;11.10;99.90
33881;DHT22;20172;47.530;10.256;2022-09-02T03:25:31;11.10;99.90
33881;DHT22;20172;47.530;10.256;2022-09-02T03:27:58;11.00;99.90
33881;DHT22;20172;47.530;10.256;2022-09-02T03:30:25;10.80;99.90
33881;DHT22;20172;47.530;10.256;2022-09-02T03:32:51;10.90;99.90
33881;DHT22;20172;47.530;10.256;2022-09-02T03:35:17;10.90;99.90
33881;DHT22;20172;47.530;10.256;2022-09-02T03:37:43;11.10;99.90
33881;DHT22;20172;47.530;10.256;2022-09-02T03:40:11;11.10;99.90
33881;DHT22;20172;47.530;10.256;2022-09-02T03:42:37;11.20;99.90
33881;DHT22;20172;47.530;10.256;2022-09-02T03:45:03;10.90;99.90
33881;DHT22;20172;47.530;10.256;2022-09-02T03:47:30;10.70;99.90
33881;DHT22;20172;47.530;10.256;2022-09-02T03:49:56;10.50;99.90
33881;DHT22;20172;47.530;10.256;2022-09-02T03:52:22;10.40;99.90
33881;DHT22;20172;47.530;10.256;2022-09-02T03:54:47;10.40;99.90
33881;DHT22;20172;47.530;10.256;2022-09-02T03:57:13;10.50;99.90
33881;DHT22;20172;47.530;10.256;2022-09-02T03:59:39;10.60;99.90
33881;DHT22;20172;47.530;10.256;2022-09-02T04:02:04;10.80;99.90
33881;DHT22;20172;47.530;10.256;2022-09-02T04:04:30;10.90;99.90
33881;DHT22;20172;47.530;10.256;2022-09-02T04:06:56;10.90;99.90
33881;DHT22;20172;47.530;10.256;2022-09-02T04:09:22;10.70;99.90
33881;DHT22;20172;47.530;10.256;2022-09-02T04:11:47;10.70;99.90
33881;DHT22;20172;47.530;10.256;2022-09-02T04:14:13;10.60;99.90
33881;DHT22;20172;47.530;10.256;2022-09-02T04:22:44;10.70;99.90
33881;DHT22;20172;47.530;10.256;2022-09-02T04:25:10;10.80;99.90
33881;DHT22;20172;47.530;10.256;2022-09-02T04:27:36;10.90;99.90
33881;DHT22;20172;47.530;10.256;2022-09-02T04:30:02;11.00;99.90
33881;DHT22;20172;47.530;10.256;2022-09-02T04:32:28;11.10;99.90
33881;DHT22;20172;47.530;10.256;2022-09-02T04:34:54;10.70;99.90
33881;DHT22;20172;47.530;10.256;2022-09-02T04:37:19;10.60;99.90
33881;DHT22;20172;47.530;10.256;2022-09-02T04:39:45;10.50;99.90
33881;DHT22;20172;47.530;10.256;2022-09-02T04:42:10;10.70;99.90
33881;DHT22;20172;47.530;10.256;2022-09-02T04:44:36;10.80;99.90
33881;DHT22;20172;47.530;10.256;2022-09-02T04:47:01;10.80;99.90
33881;DHT22;20172;47.530;10.256;2022-09-02T04:49:27;10.70;99.90
33881;DHT22;20172;47.530;10.256;2022-09-02T04:51:56;10.60;99.90
33881;DHT22;20172;47.530;10.256;2022-09-02T04:54:21;10.70;99.90
33881;DHT22;20172;47.530;10.256;2022-09-02T04:56:47;10.80;99.90
33881;DHT22;20172;47.530;10.256;2022-09-02T04:59:12;10.70;99.90
33881;DHT22;20172;47.530;10.256;2022-09-02T05:01:38;10.80;99.90
33881;DHT22;20172;47.530;10.256;2022-09-02T05:04:04;10.80;99.90
33881;DHT22;20172;47.530;10.256;2022-09-02T05:06:31;10.60;99.90
33881;DHT22;20172;47.530;10.256;2022-09-02T05:08:57;10.60;99.90
33881;DHT22;20172;47.530;10.256;2022-09-02T05:11:25;10.70;99.90
33881;DHT22;20172;47.530;10.256;2022-09-02T05:13:53;10.80;99.90
33881;DHT22;20172;47.530;10.256;2022-09-02T05:16:20;10.90;99.90
33881;DHT22;20172;47.530;10.256;2022-09-02T05:18:46;10.90;99.90
33881;DHT22;20172;47.530;10.256;2022-09-02T05:21:12;10.90;99.90
33881;DHT22;20172;47.530;10.256;2022-09-02T05:23:38;10.90;99.90
33881;DHT22;20172;47.530;10.256;2022-09-02T05:26:04;10.90;99.90
33881;DHT22;20172;47.530;10.256;2022-09-02T05:28:30;10.80;99.90
33881;DHT22;20172;47.530;10.256;2022-09-02T05:30:57;11.00;99.90
33881;DHT22;20172;47.530;10.256;2022-09-02T05:33:26;11.20;99.90
33881;DHT22;20172;47.530;10.256;2022-09-02T05:35:52;11.30;99.90
33881;DHT22;20172;47.530;10.256;2022-09-02T05:38:18;11.50;99.90
33881;DHT22;20172;47.530;10.256;2022-09-02T05:40:44;11.70;99.90
33881;DHT22;20172;47.530;10.256;2022-09-02T05:43:10;11.80;99.90
33881;DHT22;20172;47.530;10.256;2022-09-02T05:45:36;11.90;99.90
33881;DHT22;20172;47.530;10.256;2022-09-02T05:48:02;12.00;99.90
33881;DHT22;20172;47.530;10.256;2022-09-02T05:50:47;12.20;99.90
33881;DHT22;20172;47.530;10.256;2022-09-02T05:53:13;12.40;99.90
33881;DHT22;20172;47.530;10.256;2022-09-02T05:55:38;12.50;99.90
33881;DHT22;20172;47.530;10.256;2022-09-02T05:58:04;12.60;99.90
33881;DHT22;20172;47.530;10.256;2022-09-02T06:00:29;12.60;99.90
33881;DHT22;20172;47.530;10.256;2022-09-02T06:02:55;12.50;99.90
33881;DHT22;20172;47.530;10.256;2022-09-02T06:05:20;12.60;99.90
33881;DHT22;20172;47.530;10.256;2022-09-02T06:07:46;12.70;99.90
33881;DHT22;20172;47.530;10.256;2022-09-02T06:10:11;12.80;99.90
33881;DHT22;20172;47.530;10.256;2022-09-02T06:12:37;12.90;99.90
33881;DHT22;20172;47.530;10.256;2022-09-02T06:15:03;13.00;99.90
33881;DHT22;20172;47.530;10.256;2022-09-02T06:17:29;13.10;99.90
33881;DHT22;20172;47.530;10.256;2022-09-02T06:19:54;12.80;99.90
33881;DHT22;20172;47.530;10.256;2022-09-02T06:22:20;12.70;99.90
33881;DHT22;20172;47.530;10.256;2022-09-02T06:24:45;12.90;99.90
33881;DHT22;20172;47.530;10.256;2022-09-02T06:27:11;13.30;99.90
33881;DHT22;20172;47.530;10.256;2022-09-02T06:29:36;13.50;99.90
33881;DHT22;20172;47.530;10.256;2022-09-02T06:32:02;13.70;99.90
33881;DHT22;20172;47.530;10.256;2022-09-02T06:34:27;13.90;99.90
33881;DHT22;20172;47.530;10.256;2022-09-02T06:36:53;14.10;99.90
33881;DHT22;20172;47.530;10.256;2022-09-02T06:39:20;14.30;99.90
33881;DHT22;20172;47.530;10.256;2022-09-02T06:41:46;14.40;99.90
33881;DHT22;20172;47.530;10.256;2022-09-02T06:44:13;14.50;99.90
33881;DHT22;20172;47.530;10.256;2022-09-02T06:46:42;14.60;99.90
33881;DHT22;20172;47.530;10.256;2022-09-02T06:49:07;14.70;99.90
33881;DHT22;20172;47.530;10.256;2022-09-02T06:51:37;14.80;99.90
33881;DHT22;20172;47.530;10.256;2022-09-02T06:54:04;15.00;99.90
33881;DHT22;20172;47.530;10.256;2022-09-02T06:56:31;15.10;99.90
33881;DHT22;20172;47.530;10.256;2022-09-02T06:58:57;15.20;99.90
33881;DHT22;20172;47.530;10.256;2022-09-02T07:01:24;15.40;99.90
33881;DHT22;20172;47.530;10.256;2022-09-02T07:03:49;15.50;99.90
33881;DHT22;20172;47.530;10.256;2022-09-02T07:06:34;15.60;99.90
33881;DHT22;20172;47.530;10.256;2022-09-02T07:09:02;15.40;99.90
33881;DHT22;20172;47.530;10.256;2022-09-02T07:11:28;15.30;99.90
33881;DHT22;20172;47.530;10.256;2022-09-02T07:13:54;14.90;99.90
33881;DHT22;20172;47.530;10.256;2022-09-02T07:16:19;14.80;99.90
33881;DHT22;20172;47.530;10.256;2022-09-02T07:18:45;15.00;99.90
33881;DHT22;20172;47.530;10.256;2022-09-02T07:21:11;15.30;99.90
33881;DHT22;20172;47.530;10.256;2022-09-02T07:23:36;15.60;99.90
33881;DHT22;20172;47.530;10.256;2022-09-02T07:26:02;15.90;99.90
33881;DHT22;20172;47.530;10.256;2022-09-02T07:28:28;15.90;99.90
33881;DHT22;20172;47.530;10.256;2022-09-02T07:30:53;16.10;99.90
33881;DHT22;20172;47.530;10.256;2022-09-02T07:33:20;16.30;99.90
33881;DHT22;20172;47.530;10.256;2022-09-02T07:35:46;16.40;99.90
33881;DHT22;20172;47.530;10.256;2022-09-02T07:38:12;16.50;99.90
33881;DHT22;20172;47.530;10.256;2022-09-02T07:40:39;16.60;99.90
33881;DHT22;20172;47.530;10.256;2022-09-02T07:43:06;16.70;99.90
33881;DHT22;20172;47.530;10.256;2022-09-02T07:45:32;16.80;99.90
33881;DHT22;20172;47.530;10.256;2022-09-02T07:47:58;16.80;99.90
33881;DHT22;20172;47.530;10.256;2022-09-02T07:50:25;16.90;99.90
33881;DHT22;20172;47.530;10.256;2022-09-02T07:52:54;17.00;99.90
33881;DHT22;20172;47.530;10.256;2022-09-02T07:55:21;17.20;99.90
33881;DHT22;20172;47.530;10.256;2022-09-02T07:57:46;17.20;99.90
33881;DHT22;20172;47.530;10.256;2022-09-02T08:00:13;17.20;99.90
33881;DHT22;20172;47.530;10.256;2022-09-02T08:02:39;17.30;99.90
33881;DHT22;20172;47.530;10.256;2022-09-02T08:05:05;17.30;99.90
33881;DHT22;20172;47.530;10.256;2022-09-02T08:07:31;17.30;99.90
33881;DHT22;20172;47.530;10.256;2022-09-02T08:09:56;17.50;99.90
33881;DHT22;20172;47.530;10.256;2022-09-02T08:12:25;17.50;99.90
33881;DHT22;20172;47.530;10.256;2022-09-02T08:14:51;17.50;99.90
33881;DHT22;20172;47.530;10.256;2022-09-02T08:17:16;17.50;99.90
33881;DHT22;20172;47.530;10.256;2022-09-02T08:19:42;17.70;99.90
33881;DHT22;20172;47.530;10.256;2022-09-02T08:22:08;17.70;99.90
33881;DHT22;20172;47.530;10.256;2022-09-02T08:24:34;17.70;99.90
33881;DHT22;20172;47.530;10.256;2022-09-02T08:27:00;17.80;99.90
33881;DHT22;20172;47.530;10.256;2022-09-02T08:29:26;17.80;99.90
33881;DHT22;20172;47.530;10.256;2022-09-02T08:31:51;18.10;99.90
33881;DHT22;20172;47.530;10.256;2022-09-02T08:34:17;18.30;99.90
33881;DHT22;20172;47.530;10.256;2022-09-02T08:36:42;18.30;99.90
33881;DHT22;20172;47.530;10.256;2022-09-02T08:39:09;18.30;99.90
33881;DHT22;20172;47.530;10.256;2022-09-02T08:41:44;18.50;99.90
33881;DHT22;20172;47.530;10.256;2022-09-02T08:44:12;18.60;99.90
33881;DHT22;20172;47.530;10.256;2022-09-02T08:46:43;18.80;99.90
33881;DHT22;20172;47.530;10.256;2022-09-02T08:51:47;19.00;99.90
33881;DHT22;20172;47.530;10.256;2022-09-02T08:54:21;19.20;99.90
33881;DHT22;20172;47.530;10.256;2022-09-02T08:56:48;19.40;99.90
33881;DHT22;20172;47.530;10.256;2022-09-02T08:59:17;19.40;99.90
33881;DHT22;20172;47.530;10.256;2022-09-02T09:01:52;19.60;99.90
33881;DHT22;20172;47.530;10.256;2022-09-02T09:16:57;20.20;99.90
33881;DHT22;20172;47.530;10.256;2022-09-02T09:21:52;20.50;99.90
33881;DHT22;20172;47.530;10.256;2022-09-02T09:26:50;20.70;99.90
33881;DHT22;20172;47.530;10.256;2022-09-02T09:29:17;20.80;99.90
33881;DHT22;20172;47.530;10.256;2022-09-02T09:31:43;21.00;99.90
33881;DHT22;20172;47.530;10.256;2022-09-02T09:34:10;21.10;99.90
33881;DHT22;20172;47.530;10.256;2022-09-02T09:39:24;21.30;99.90
33881;DHT22;20172;47.530;10.256;2022-09-02T09:41:54;21.30;99.90
33881;DHT22;20172;47.530;10.256;2022-09-02T09:47:00;21.50;99.90
33881;DHT22;20172;47.530;10.256;2022-09-02T09:49:26;21.70;99.90
33881;DHT22;20172;47.530;10.256;2022-09-02T09:51:54;21.80;99.90
33881;DHT22;20172;47.530;10.256;2022-09-02T09:54:20;21.90;99.90
33881;DHT22;20172;47.530;10.256;2022-09-02T09:56:49;21.90;99.90
33881;DHT22;20172;47.530;10.256;2022-09-02T09:59:33;22.10;99.90
33881;DHT22;20172;47.530;10.256;2022-09-02T10:02:00;22.10;99.90
33881;DHT22;20172;47.530;10.256;2022-09-02T10:04:28;22.30;99.90
33881;DHT22;20172;47.530;10.256;2022-09-02T10:06:54;22.40;99.90
33881;DHT22;20172;47.530;10.256;2022-09-02T10:11:55;22.30;99.90
33881;DHT22;20172;47.530;10.256;2022-09-02T10:14:21;22.50;99.90
33881;DHT22;20172;47.530;10.256;2022-09-02T10:19:28;22.70;99.90
33881;DHT22;20172;47.530;10.256;2022-09-02T10:27:31;23.00;99.90
33881;DHT22;20172;47.530;10.256;2022-09-02T10:40:14;23.80;99.90
33881;DHT22;20172;47.530;10.256;2022-09-02T10:45:44;24.00;99.90
33881;DHT22;20172;47.530;10.256;2022-09-02T10:56:02;24.60;99.90
33881;DHT22;20172;47.530;10.256;2022-09-02T11:01:05;24.70;99.90
33881;DHT22;20172;47.530;10.256;2022-09-02T11:03:32;24.70;99.90
33881;DHT22;20172;47.530;10.256;2022-09-02T11:06:13;24.80;99.90
33881;DHT22;20172;47.530;10.256;2022-09-02T11:08:45;24.90;99.90
33881;DHT22;20172;47.530;10.256;2022-09-02T11:11:14;25.00;99.90
33881;DHT22;20172;47.530;10.256;2022-09-02T11:18:48;25.20;99.90
33881;DHT22;20172;47.530;10.256;2022-09-02T11:21:20;25.40;99.90
33881;DHT22;20172;47.530;10.256;2022-09-02T11:23:50;25.30;99.90
33881;DHT22;20172;47.530;10.256;2022-09-02T11:31:19;25.40;99.90
33881;DHT22;20172;47.530;10.256;2022-09-02T11:36:11;25.80;99.90
33881;DHT22;20172;47.530;10.256;2022-09-02T11:38:50;26.00;99.90
33881;DHT22;20172;47.530;10.256;2022-09-02T11:54:34;27.20;99.90
33881;DHT22;20172;47.530;10.256;2022-09-02T11:57:01;27.10;99.90
33881;DHT22;20172;47.530;10.256;2022-09-02T12:02:11;27.40;99.90
33881;DHT22;20172;47.530;10.256;2022-09-02T12:04:40;27.40;99.90
33881;DHT22;20172;47.530;10.256;2022-09-02T12:09:41;27.70;99.90
33881;DHT22;20172;47.530;10.256;2022-09-02T12:12:07;28.20;99.90
33881;DHT22;20172;47.530;10.256;2022-09-02T12:17:11;28.30;99.90
33881;DHT22;20172;47.530;10.256;2022-09-02T12:20:01;28.10;99.90
33881;DHT22;20172;47.530;10.256;2022-09-02T12:22:31;27.90;99.90
33881;DHT22;20172;47.530;10.256;2022-09-02T12:24:57;28.40;99.90
33881;DHT22;20172;47.530;10.256;2022-09-02T12:27:24;28.70;99.90
33881;DHT22;20172;47.530;10.256;2022-09-02T12:29:50;29.00;99.90
33881;DHT22;20172;47.530;10.256;2022-09-02T12:35:07;29.70;99.90
33881;DHT22;20172;47.530;10.256;2022-09-02T12:40:16;32.30;95.10
33881;DHT22;20172;47.530;10.256;2022-09-02T12:42:44;34.00;88.90
33881;DHT22;20172;47.530;10.256;2022-09-02T12:45:12;34.50;84.60
33881;DHT22;20172;47.530;10.256;2022-09-02T12:47:57;35.40;79.20
33881;DHT22;20172;47.530;10.256;2022-09-02T12:50:25;34.60;78.70
33881;DHT22;20172;47.530;10.256;2022-09-02T12:52:52;35.00;75.70
33881;DHT22;20172;47.530;10.256;2022-09-02T12:55:31;34.00;77.40
33881;DHT22;20172;47.530;10.256;2022-09-02T12:58:08;35.40;74.20
33881;DHT22;20172;47.530;10.256;2022-09-02T13:19:35;41.30;58.40
33881;DHT22;20172;47.530;10.256;2022-09-02T13:24:56;44.90;50.50
33881;DHT22;20172;47.530;10.256;2022-09-02T13:30:19;44.90;45.30
33881;DHT22;20172;47.530;10.256;2022-09-02T13:33:00;44.90;45.30
33881;DHT22;20172;47.530;10.256;2022-09-02T13:35:26;45.70;44.20
33881;DHT22;20172;47.530;10.256;2022-09-02T13:37:54;46.50;43.60
33881;DHT22;20172;47.530;10.256;2022-09-02T13:43:01;47.30;41.60
33881;DHT22;20172;47.530;10.256;2022-09-02T13:45:28;47.70;40.00
33881;DHT22;20172;47.530;10.256;2022-09-02T13:47:55;47.40;39.80
33881;DHT22;20172;47.530;10.256;2022-09-02T13:50:22;47.40;40.20
33881;DHT22;20172;47.530;10.256;2022-09-02T13:52:50;44.30;42.30
33881;DHT22;20172;47.530;10.256;2022-09-02T13:55:16;44.20;42.40
33881;DHT22;20172;47.530;10.256;2022-09-02T13:57:43;45.00;41.30
33881;DHT22;20172;47.530;10.256;2022-09-02T14:00:11;45.40;40.70
33881;DHT22;20172;47.530;10.256;2022-09-02T14:02:37;45.10;41.40
33881;DHT22;20172;47.530;10.256;2022-09-02T14:07:36;42.30;43.10
33881;DHT22;20172;47.530;10.256;2022-09-02T14:10:08;43.40;43.10
33881;DHT22;20172;47.530;10.256;2022-09-02T14:12:35;43.00;42.50
33881;DHT22;20172;47.530;10.256;2022-09-02T14:15:02;40.90;45.00
33881;DHT22;20172;47.530;10.256;2022-09-02T14:17:27;40.90;44.70
33881;DHT22;20172;47.530;10.256;2022-09-02T14:22:37;40.80;45.40
33881;DHT22;20172;47.530;10.256;2022-09-02T14:25:13;39.10;47.80
33881;DHT22;20172;47.530;10.256;2022-09-02T14:27:47;41.00;45.40
33881;DHT22;20172;47.530;10.256;2022-09-02T14:30:13;43.00;43.30
33881;DHT22;20172;47.530;10.256;2022-09-02T14:32:49;44.80;41.20
33881;DHT22;20172;47.530;10.256;2022-09-02T14:35:34;45.70;40.20
33881;DHT22;20172;47.530;10.256;2022-09-02T14:37:59;44.80;40.80
33881;DHT22;20172;47.530;10.256;2022-09-02T14:40:34;45.30;40.50
33881;DHT22;20172;47.530;10.256;2022-09-02T14:43:00;44.60;40.60
33881;DHT22;20172;47.530;10.256;2022-09-02T14:45:33;43.20;41.90
33881;DHT22;20172;47.530;10.256;2022-09-02T14:48:07;43.60;41.10
33881;DHT22;20172;47.530;10.256;2022-09-02T14:50:33;44.10;40.60
33881;DHT22;20172;47.530;10.256;2022-09-02T14:53:04;44.10;40.60
33881;DHT22;20172;47.530;10.256;2022-09-02T14:55:44;44.60;40.30
33881;DHT22;20172;47.530;10.256;2022-09-02T14:58:13;43.40;41.00
33881;DHT22;20172;47.530;10.256;2022-09-02T15:00:46;42.90;41.40
33881;DHT22;20172;47.530;10.256;2022-09-02T15:03:13;43.30;41.00
33881;DHT22;20172;47.530;10.256;2022-09-02T15:05:39;42.30;42.60
33881;DHT22;20172;47.530;10.256;2022-09-02T15:08:04;39.20;45.90
33881;DHT22;20172;47.530;10.256;2022-09-02T15:10:31;36.30;49.00
33881;DHT22;20172;47.530;10.256;2022-09-02T15:12:58;35.20;50.80
33881;DHT22;20172;47.530;10.256;2022-09-02T15:15:24;34.10;53.10
33881;DHT22;20172;47.530;10.256;2022-09-02T15:17:51;33.00;55.10
33881;DHT22;20172;47.530;10.256;2022-09-02T15:20:17;32.30;56.30
33881;DHT22;20172;47.530;10.256;2022-09-02T15:22:42;31.60;57.40
33881;DHT22;20172;47.530;10.256;2022-09-02T15:25:08;31.30;58.10
33881;DHT22;20172;47.530;10.256;2022-09-02T15:27:33;30.60;59.50
33881;DHT22;20172;47.530;10.256;2022-09-02T15:30:03;29.80;61.20
33881;DHT22;20172;47.530;10.256;2022-09-02T15:32:36;29.10;63.70
33881;DHT22;20172;47.530;10.256;2022-09-02T15:35:03;29.10;63.80
33881;DHT22;20172;47.530;10.256;2022-09-02T15:37:28;29.00;65.10
33881;DHT22;20172;47.530;10.256;2022-09-02T15:39:54;28.70;65.60
33881;DHT22;20172;47.530;10.256;2022-09-02T15:42:20;28.20;67.20
33881;DHT22;20172;47.530;10.256;2022-09-02T15:44:49;28.10;66.80
33881;DHT22;20172;47.530;10.256;2022-09-02T15:47:17;27.90;68.40
33881;DHT22;20172;47.530;10.256;2022-09-02T15:49:43;27.60;69.40
33881;DHT22;20172;47.530;10.256;2022-09-02T15:52:09;27.50;69.50
33881;DHT22;20172;47.530;10.256;2022-09-02T15:54:35;27.50;69.50
33881;DHT22;20172;47.530;10.256;2022-09-02T15:57:01;27.30;70.20
33881;DHT22;20172;47.530;10.256;2022-09-02T15:59:27;27.40;70.90
33881;DHT22;20172;47.530;10.256;2022-09-02T16:01:56;27.20;71.50
33881;DHT22;20172;47.530;10.256;2022-09-02T16:04:24;27.10;71.50
33881;DHT22;20172;47.530;10.256;2022-09-02T16:06:51;26.80;72.40
33881;DHT22;20172;47.530;10.256;2022-09-02T16:09:20;26.50;72.80
33881;DHT22;20172;47.530;10.256;2022-09-02T16:11:50;26.20;73.60
33881;DHT22;20172;47.530;10.256;2022-09-02T16:14:16;26.00;75.80
33881;DHT22;20172;47.530;10.256;2022-09-02T16:16:43;25.60;76.90
33881;DHT22;20172;47.530;10.256;2022-09-02T16:19:09;25.50;77.00
33881;DHT22;20172;47.530;10.256;2022-09-02T16:21:36;25.40;78.10
33881;DHT22;20172;47.530;10.256;2022-09-02T16:24:05;25.30;79.10
33881;DHT22;20172;47.530;10.256;2022-09-02T16:26:34;25.10;79.20
33881;DHT22;20172;47.530;10.256;2022-09-02T16:29:03;25.00;81.60
33881;DHT22;20172;47.530;10.256;2022-09-02T16:31:30;24.80;81.00
33881;DHT22;20172;47.530;10.256;2022-09-02T16:36:23;24.50;81.90
33881;DHT22;20172;47.530;10.256;2022-09-02T16:38:56;24.30;83.10
33881;DHT22;20172;47.530;10.256;2022-09-02T16:41:29;24.20;85.10
33881;DHT22;20172;47.530;10.256;2022-09-02T16:43:59;24.10;84.30
33881;DHT22;20172;47.530;10.256;2022-09-02T16:46:27;24.10;85.60
33881;DHT22;20172;47.530;10.256;2022-09-02T16:48:56;24.00;85.80
33881;DHT22;20172;47.530;10.256;2022-09-02T16:51:25;23.90;84.90
33881;DHT22;20172;47.530;10.256;2022-09-02T16:53:53;23.80;86.40
33881;DHT22;20172;47.530;10.256;2022-09-02T16:56:21;23.60;85.80
33881;DHT22;20172;47.530;10.256;2022-09-02T16:58:48;23.50;87.60
33881;DHT22;20172;47.530;10.256;2022-09-02T17:01:13;23.40;87.40
33881;DHT22;20172;47.530;10.256;2022-09-02T17:03:42;23.10;88.40
33881;DHT22;20172;47.530;10.256;2022-09-02T17:06:09;23.20;89.20
33881;DHT22;20172;47.530;10.256;2022-09-02T17:08:35;23.10;89.40
33881;DHT22;20172;47.530;10.256;2022-09-02T17:13:49;22.80;90.70
33881;DHT22;20172;47.530;10.256;2022-09-02T17:16:18;22.80;90.80
33881;DHT22;20172;47.530;10.256;2022-09-02T17:18:44;22.70;91.30
33881;DHT22;20172;47.530;10.256;2022-09-02T17:21:18;22.50;91.30
33881;DHT22;20172;47.530;10.256;2022-09-02T17:23:45;22.40;92.70
33881;DHT22;20172;47.530;10.256;2022-09-02T17:26:11;22.30;93.30
33881;DHT22;20172;47.530;10.256;2022-09-02T17:28:37;22.10;93.10
33881;DHT22;20172;47.530;10.256;2022-09-02T17:31:19;22.10;93.50
33881;DHT22;20172;47.530;10.256;2022-09-02T17:33:45;22.00;93.80
33881;DHT22;20172;47.530;10.256;2022-09-02T17:36:11;21.90;94.20
33881;DHT22;20172;47.530;10.256;2022-09-02T17:38:37;21.60;95.30
33881;DHT22;20172;47.530;10.256;2022-09-02T17:41:03;21.60;95.50
33881;DHT22;20172;47.530;10.256;2022-09-02T17:43:47;21.40;96.80